Time;durP1;ratioP1;P1;durP2;ratioP2;P2;SDS_P1;SDS_P2;PMS_P1;PMS_P2;Temp;Humidity;BMP_temperature;BMP_pressure;BME280_temperature;BME280_humidity;BME280_pressure;Samples;Min_cycle;Max_cycle;Signal;HPM_P1;HPM_P2
2021/01/24 00:02:58;;;;;;;3.53;1.52;;;2.30;99.90;;;;;;8324608;28;20029;-71
2021/01/24 00:06:59;;;;;;;1.00;0.90;;;2.30;99.90;;;;;;8324752;28;20018;-71
2021/01/24 00:11:00;;;;;;;1.58;0.93;;;2.40;99.90;;;;;;8364041;28;20542;-71
2021/01/24 00:15:01;;;;;;;2.17;1.17;;;2.40;99.90;;;;;;8363838;28;20025;-71
2021/01/24 00:19:01;;;;;;;4.32;1.20;;;2.30;99.90;;;;;;8363743;28;20029;-71
2021/01/24 00:23:02;;;;;;;1.70;1.38;;;2.30;99.90;;;;;;8364073;28;20036;-70
2021/01/24 00:27:03;;;;;;;1.50;1.08;;;2.30;99.90;;;;;;8395626;28;20020;-70
2021/01/24 00:31:04;;;;;;;1.13;1.02;;;2.20;99.90;;;;;;8396580;28;20025;-71
2021/01/24 00:35:08;;;;;;;0.95;0.88;;;2.20;99.90;;;;;;8394856;28;20574;-69
2021/01/24 00:39:08;;;;;;;1.52;0.80;;;2.10;99.90;;;;;;8393329;28;20115;-70
2021/01/24 00:43:09;;;;;;;1.65;0.70;;;2.10;99.90;;;;;;8338061;28;20488;-71
2021/01/24 00:47:10;;;;;;;1.13;0.88;;;2.00;99.90;;;;;;8361567;28;20021;-71
2021/01/24 00:51:10;;;;;;;1.35;1.05;;;2.00;99.90;;;;;;8362829;28;20040;-72
2021/01/24 00:55:11;;;;;;;1.15;0.80;;;2.00;99.90;;;;;;8362598;28;20689;-70
2021/01/24 00:59:12;;;;;;;2.20;1.15;;;2.10;99.90;;;;;;8363207;28;20059;-71
2021/01/24 01:03:13;;;;;;;0.85;0.85;;;2.10;99.90;;;;;;8362624;28;20029;-71
2021/01/24 01:07:13;;;;;;;1.23;1.13;;;2.10;99.90;;;;;;8361254;28;20021;-70
2021/01/24 01:11:14;;;;;;;0.90;0.73;;;2.00;99.90;;;;;;8344444;28;20025;-71
2021/01/24 01:15:15;;;;;;;1.50;1.20;;;1.90;99.90;;;;;;8337681;28;20028;-71
2021/01/24 01:19:15;;;;;;;0.77;0.70;;;1.80;99.90;;;;;;8361774;28;20104;-72
2021/01/24 01:23:16;;;;;;;1.45;1.20;;;1.80;99.90;;;;;;8359502;28;20500;-71
2021/01/24 01:27:17;;;;;;;3.15;1.20;;;1.70;99.90;;;;;;8361967;28;20013;-71
2021/01/24 01:31:17;;;;;;;1.20;1.10;;;1.70;99.90;;;;;;8360398;28;20017;-70
2021/01/24 01:35:18;;;;;;;0.70;0.60;;;1.80;99.90;;;;;;8359989;28;20025;-70
2021/01/24 01:39:19;;;;;;;1.13;0.73;;;1.90;99.90;;;;;;8358084;28;20547;-70
2021/01/24 01:43:20;;;;;;;1.58;1.00;;;1.90;99.90;;;;;;8328128;28;20030;-70
2021/01/24 01:47:23;;;;;;;0.73;0.63;;;1.80;99.90;;;;;;8336855;28;20028;-70
2021/01/24 01:51:25;;;;;;;1.10;1.00;;;1.70;99.90;;;;;;8359890;28;20021;-72
2021/01/24 01:55:25;;;;;;;0.85;0.80;;;1.70;99.90;;;;;;8359640;28;20634;-70
2021/01/24 01:59:26;;;;;;;0.77;0.75;;;1.80;99.90;;;;;;8360873;28;20025;-70
2021/01/24 02:03:35;;;;;;;0.95;0.70;;;1.70;99.90;;;;;;8360481;28;20461;-70
2021/01/24 02:07:49;;;;;;;0.82;0.60;;;1.70;99.90;;;;;;8360149;28;20380;-71
2021/01/24 02:12:28;;;;;;;1.75;0.90;;;1.70;99.90;;;;;;8358873;28;20052;-70
2021/01/24 02:16:29;;;;;;;0.98;0.80;;;1.80;99.90;;;;;;8359722;28;20095;-70
2021/01/24 02:20:36;;;;;;;0.98;0.98;;;1.80;99.90;;;;;;8359171;28;20104;-71
2021/01/24 02:24:44;;;;;;;0.60;0.55;;;1.80;99.90;;;;;;8358634;28;20028;-71
2021/01/24 02:29:18;;;;;;;0.90;0.68;;;1.90;99.90;;;;;;8360295;28;20487;-70
2021/01/24 02:33:22;;;;;;;1.65;0.75;;;1.90;99.90;;;;;;8358580;28;20029;-70
2021/01/24 02:37:24;;;;;;;2.08;0.75;;;2.00;99.90;;;;;;8358274;28;20071;-71
2021/01/24 02:41:25;;;;;;;0.57;0.57;;;2.00;99.90;;;;;;8344574;28;20396;-70
2021/01/24 02:45:26;;;;;;;4.38;0.63;;;2.10;99.90;;;;;;8397321;22;20059;-73
2021/01/24 02:49:29;;;;;;;1.27;0.60;;;2.00;99.90;;;;;;8390955;28;20021;-73
2021/01/24 02:53:32;;;;;;;0.50;0.43;;;2.00;99.90;;;;;;8366051;28;20489;-73
2021/01/24 02:57:33;;;;;;;2.92;0.60;;;2.00;99.90;;;;;;8357371;28;20060;-74
2021/01/24 03:01:34;;;;;;;0.47;0.40;;;2.00;99.90;;;;;;8358290;28;20736;-70
2021/01/24 03:05:35;;;;;;;0.35;0.30;;;2.00;99.90;;;;;;8357784;28;20538;-71
2021/01/24 03:09:35;;;;;;;0.20;0.20;;;1.90;99.90;;;;;;8358151;28;20049;-71
2021/01/24 03:13:43;;;;;;;1.42;0.50;;;1.80;99.90;;;;;;8356717;28;20036;-71
2021/01/24 03:17:47;;;;;;;0.82;0.40;;;1.80;99.90;;;;;;8358222;28;20052;-70
2021/01/24 03:21:50;;;;;;;2.40;0.30;;;1.80;99.90;;;;;;8356817;28;20521;-71
2021/01/24 03:25:52;;;;;;;0.68;0.43;;;1.80;99.90;;;;;;8355838;28;20056;-70
2021/01/24 03:29:54;;;;;;;0.35;0.28;;;1.70;99.90;;;;;;8358598;28;20047;-71
2021/01/24 03:33:54;;;;;;;0.40;0.40;;;1.70;99.90;;;;;;8357182;28;20021;-71
2021/01/24 03:37:55;;;;;;;0.50;0.50;;;1.80;99.90;;;;;;8359039;28;20545;-71
2021/01/24 03:41:56;;;;;;;0.40;0.40;;;1.90;99.90;;;;;;8358364;28;20108;-71
2021/01/24 03:45:56;;;;;;;0.32;0.32;;;1.80;99.90;;;;;;8357345;28;20715;-70
2021/01/24 03:49:57;;;;;;;0.50;0.50;;;1.70;99.90;;;;;;8357046;28;20014;-71
2021/01/24 03:53:57;;;;;;;0.77;0.60;;;1.50;99.90;;;;;;8358060;28;20104;-73
2021/01/24 03:57:58;;;;;;;2.05;0.40;;;1.20;99.90;;;;;;8357543;28;20031;-72
2021/01/24 04:01:58;;;;;;;0.85;0.30;;;1.10;99.90;;;;;;8358412;28;20025;-72
2021/01/24 04:05:59;;;;;;;0.38;0.35;;;1.10;99.90;;;;;;8357576;28;20048;-70
2021/01/24 04:09:59;;;;;;;0.95;0.82;;;1.10;99.90;;;;;;8358284;28;20017;-71
2021/01/24 04:14:00;;;;;;;0.98;0.73;;;0.90;99.90;;;;;;8357051;28;20060;-74
2021/01/24 04:18:00;;;;;;;2.20;0.90;;;0.80;99.90;;;;;;8358057;28;20032;-71
2021/01/24 04:22:01;;;;;;;1.42;0.60;;;0.80;99.90;;;;;;8355954;28;20025;-71
2021/01/24 04:26:02;;;;;;;0.40;0.40;;;0.70;99.90;;;;;;8357287;28;20465;-71
2021/01/24 04:30:03;;;;;;;0.75;0.50;;;0.70;99.90;;;;;;8368068;28;20020;-72
2021/01/24 04:34:03;;;;;;;0.90;0.60;;;0.60;99.90;;;;;;8389046;28;20032;-71
2021/01/24 04:38:04;;;;;;;0.52;0.50;;;0.60;99.90;;;;;;8390162;28;20025;-71
2021/01/24 04:42:05;;;;;;;0.35;0.35;;;0.40;99.90;;;;;;8364731;28;20025;-72
2021/01/24 04:46:06;;;;;;;0.63;0.57;;;0.30;99.90;;;;;;8356527;28;20032;-71
2021/01/24 04:50:07;;;;;;;0.57;0.50;;;0.30;99.90;;;;;;8357740;28;20395;-72
2021/01/24 04:54:09;;;;;;;0.57;0.50;;;0.40;99.90;;;;;;8356949;28;20025;-71
2021/01/24 04:58:10;;;;;;;0.50;0.47;;;;;;;;;;8358882;28;20044;-72
2021/01/24 05:02:13;;;;;;;0.40;0.35;;;0.40;99.90;;;;;;8363236;28;20021;-71
2021/01/24 05:06:13;;;;;;;0.30;0.30;;;0.30;99.90;;;;;;8362356;28;20032;-72
2021/01/24 05:10:15;;;;;;;0.30;0.30;;;0.20;99.90;;;;;;8362679;28;20430;-72
2021/01/24 05:14:17;;;;;;;0.32;0.32;;;0.30;99.90;;;;;;8362024;28;20021;-72
2021/01/24 05:18:20;;;;;;;0.82;0.40;;;0.40;99.90;;;;;;8361635;28;20033;-72
2021/01/24 05:22:21;;;;;;;0.47;0.47;;;0.40;99.90;;;;;;8362118;28;20036;-71
2021/01/24 05:26:21;;;;;;;0.40;0.40;;;0.50;99.90;;;;;;8362296;28;20017;-71
2021/01/24 05:30:28;;;;;;;0.90;0.60;;;0.60;99.90;;;;;;8362294;28;20040;-71
2021/01/24 05:34:30;;;;;;;1.58;0.70;;;0.70;99.90;;;;;;8360233;28;20086;-71
2021/01/24 05:38:32;;;;;;;0.93;0.65;;;0.60;99.90;;;;;;8362750;28;20055;-71
2021/01/24 05:42:39;;;;;;;1.08;0.80;;;0.70;99.90;;;;;;8362120;28;20029;-71
2021/01/24 05:46:40;;;;;;;0.75;0.70;;;0.70;99.90;;;;;;8361545;28;20115;-71
2021/01/24 05:50:45;;;;;;;1.45;0.70;;;0.50;99.90;;;;;;8361709;28;20024;-71
2021/01/24 05:54:47;;;;;;;0.43;0.40;;;0.40;99.90;;;;;;8361249;28;20021;-71
2021/01/24 05:59:00;;;;;;;0.40;0.40;;;0.20;99.90;;;;;;8361725;28;20029;-70
2021/01/24 06:03:02;;;;;;;0.75;0.50;;;0.10;99.90;;;;;;8361039;28;20021;-71
2021/01/24 06:07:02;;;;;;;1.20;0.70;;;-0.10;99.90;;;;;;8362767;28;20021;-71
2021/01/24 06:11:04;;;;;;;1.35;0.47;;;-0.30;99.90;;;;;;8375316;28;20112;-71
2021/01/24 06:15:08;;;;;;;0.40;0.30;;;-0.40;99.90;;;;;;8376446;28;20380;-71
2021/01/24 06:19:09;;;;;;;0.30;0.30;;;-0.50;99.90;;;;;;8370463;28;20036;-71
2021/01/24 06:23:25;;;;;;;0.60;0.55;;;-0.50;99.90;;;;;;8374871;28;20651;-71
2021/01/24 06:27:29;;;;;;;0.75;0.50;;;-0.60;99.90;;;;;;8371670;28;20070;-71
2021/01/24 06:31:31;;;;;;;0.57;0.57;;;-0.70;99.90;;;;;;8379429;28;20715;-70
2021/01/24 06:35:31;;;;;;;0.90;0.70;;;-0.80;99.90;;;;;;8380787;28;20032;-69
2021/01/24 06:39:51;;;;;;;0.50;0.45;;;-0.80;99.90;;;;;;8376358;28;20025;-73
2021/01/24 06:43:52;;;;;;;;;;;-0.90;99.90;;;;;;8378038;28;20051;-74
2021/01/24 06:48:00;;;;;;;2.00;0.70;;;-0.80;99.90;;;;;;8374746;28;19915;-72
2021/01/24 06:52:14;;;;;;;2.72;0.70;;;-0.70;99.90;;;;;;8394532;28;20032;-72
2021/01/24 06:56:16;;;;;;;0.52;0.45;;;-0.70;99.90;;;;;;8364478;28;20533;-72
2021/01/24 07:00:26;;;;;;;1.15;1.00;;;-0.50;99.90;;;;;;8373580;28;20033;-70
2021/01/24 07:04:28;;;;;;;1.90;1.42;;;-0.40;99.90;;;;;;8397524;28;20036;-72
2021/01/24 07:08:30;;;;;;;2.33;1.60;;;-0.30;99.90;;;;;;8370651;28;20928;-75
2021/01/24 07:12:40;;;;;;;0.80;0.80;;;-0.30;99.90;;;;;;8368713;28;20099;-73
2021/01/24 07:16:42;;;;;;;1.30;1.13;;;-0.50;99.90;;;;;;8376997;28;20403;-75
2021/01/24 07:20:43;;;;;;;1.83;1.25;;;-0.50;99.90;;;;;;8389605;28;20078;-73
2021/01/24 07:24:45;;;;;;;1.80;1.10;;;-0.60;99.90;;;;;;8373754;28;20033;-72
2021/01/24 07:28:46;;;;;;;3.55;1.90;;;-0.70;99.90;;;;;;8388491;28;20163;-72
2021/01/24 07:32:47;;;;;;;3.08;1.90;;;-0.70;99.90;;;;;;8370008;28;20028;-72
2021/01/24 07:36:49;;;;;;;1.60;1.20;;;-0.70;99.90;;;;;;8395555;28;20131;-73
2021/01/24 07:40:52;;;;;;;2.42;1.52;;;-0.60;99.90;;;;;;8364663;28;20411;-73
2021/01/24 07:44:53;;;;;;;3.92;1.45;;;-0.50;99.90;;;;;;8379476;28;20020;-72
2021/01/24 07:48:53;;;;;;;4.22;1.23;;;-0.50;99.90;;;;;;8389253;28;20028;-70
2021/01/24 07:52:54;;;;;;;5.82;2.95;;;-0.50;99.90;;;;;;8370474;28;20050;-69
2021/01/24 07:56:55;;;;;;;3.42;1.88;;;-0.40;99.90;;;;;;8384519;28;20028;-71
2021/01/24 08:00:57;;;;;;;2.97;2.00;;;-0.30;99.90;;;;;;8371480;28;20112;-70
2021/01/24 08:05:01;;;;;;;3.80;2.05;;;-0.20;99.90;;;;;;8378414;28;20059;-71
2021/01/24 08:09:06;;;;;;;2.50;1.60;;;-0.20;99.90;;;;;;8361657;28;20029;-72
2021/01/24 08:13:06;;;;;;;3.47;1.90;;;-0.10;99.90;;;;;;8371614;28;20415;-72
2021/01/24 08:17:11;;;;;;;6.47;2.63;;;0.00;99.90;;;;;;8365946;28;20032;-72
2021/01/24 08:21:13;;;;;;;10.68;4.22;;;-0.10;99.90;;;;;;8364074;28;20083;-72
2021/01/24 08:25:15;;;;;;;3.72;1.60;;;0.10;99.90;;;;;;8374497;28;20398;-73
2021/01/24 08:29:17;;;;;;;2.20;0.93;;;0.00;99.90;;;;;;8374583;28;20025;-73
2021/01/24 08:33:18;;;;;;;0.88;0.65;;;0.10;99.90;;;;;;8383051;28;20074;-73
2021/01/24 08:37:20;;;;;;;1.58;1.02;;;0.10;99.90;;;;;;8395477;28;20031;-72
2021/01/24 08:41:29;;;;;;;2.58;1.58;;;0.10;99.90;;;;;;8379068;28;20032;-74
2021/01/24 08:45:30;;;;;;;1.95;1.25;;;0.30;99.90;;;;;;8376950;28;21220;-72
2021/01/24 08:49:31;;;;;;;1.70;1.23;;;0.30;99.90;;;;;;8425820;22;20050;-70
2021/01/24 08:53:32;;;;;;;1.52;1.08;;;0.30;99.90;;;;;;8377812;28;20484;-71
2021/01/24 08:57:33;;;;;;;1.30;1.20;;;0.50;99.90;;;;;;8381015;28;20124;-70
2021/01/24 09:01:43;;;;;;;2.03;1.40;;;0.40;99.90;;;;;;8333002;28;20037;-71
2021/01/24 09:05:44;;;;;;;2.97;1.55;;;0.40;99.90;;;;;;8329566;28;20064;-70
2021/01/24 09:09:50;;;;;;;1.17;0.75;;;0.50;99.90;;;;;;8325153;28;20476;-72
2021/01/24 09:13:51;;;;;;;1.50;1.15;;;0.60;99.90;;;;;;8309464;28;20034;-76
2021/01/24 09:17:54;;;;;;;1.73;1.08;;;0.80;99.90;;;;;;8308582;28;20065;-71
2021/01/24 09:21:55;;;;;;;1.00;0.88;;;0.80;99.90;;;;;;8325280;28;20036;-69
2021/01/24 09:25:56;;;;;;;1.02;0.73;;;0.70;99.90;;;;;;8322099;28;20036;-67
2021/01/24 09:29:57;;;;;;;1.60;1.00;;;0.80;99.90;;;;;;8317232;28;20047;-67
2021/01/24 09:33:57;;;;;;;3.22;1.17;;;0.90;99.90;;;;;;8323955;28;20025;-67
2021/01/24 09:37:58;;;;;;;5.30;2.42;;;0.80;99.90;;;;;;8319488;28;20028;-67
2021/01/24 09:41:58;;;;;;;4.60;1.88;;;0.90;99.90;;;;;;8313242;28;20026;-66
2021/01/24 09:45:59;;;;;;;2.78;1.55;;;1.20;99.90;;;;;;8312571;28;20393;-73
2021/01/24 09:49:59;;;;;;;2.03;1.58;;;1.40;99.90;;;;;;8315547;28;20022;-69
2021/01/24 09:54:00;;;;;;;10.43;4.68;;;1.30;99.90;;;;;;8318249;28;20117;-69
2021/01/24 09:58:01;;;;;;;26.88;11.05;;;1.20;99.90;;;;;;8314367;28;20049;-69
2021/01/24 10:02:01;;;;;;;4.22;2.22;;;1.40;99.90;;;;;;8323259;28;20045;-69
2021/01/24 10:06:03;;;;;;;10.25;4.55;;;1.50;99.90;;;;;;8320187;28;20064;-68
2021/01/24 10:10:04;;;;;;;2.78;1.45;;;1.20;99.90;;;;;;8314089;28;20033;-68
2021/01/24 10:14:05;;;;;;;3.22;1.70;;;1.20;99.90;;;;;;8309232;28;20030;-68
2021/01/24 10:18:06;;;;;;;5.68;1.65;;;1.20;99.90;;;;;;8311732;28;20532;-68
2021/01/24 10:22:06;;;;;;;3.50;1.33;;;1.50;99.90;;;;;;8304803;28;20018;-68
2021/01/24 10:26:08;;;;;;;1.90;1.17;;;1.70;99.90;;;;;;8311181;28;20026;-68
2021/01/24 10:30:09;;;;;;;2.63;1.77;;;1.90;99.90;;;;;;8301634;28;20055;-69
2021/01/24 10:34:09;;;;;;;2.67;1.15;;;2.40;99.90;;;;;;8309793;28;20029;-68
2021/01/24 10:38:10;;;;;;;2.63;0.98;;;3.10;99.90;;;;;;8309642;28;20079;-68
2021/01/24 10:42:11;;;;;;;2.15;1.08;;;3.70;99.90;;;;;;8314216;28;20523;-68
2021/01/24 10:46:12;;;;;;;1.17;0.80;;;3.50;99.90;;;;;;8303654;28;20013;-67
2021/01/24 10:50:13;;;;;;;2.47;1.35;;;2.70;99.90;;;;;;8319550;28;20029;-68
2021/01/24 10:54:13;;;;;;;3.08;1.80;;;4.40;99.90;;;;;;8318219;28;20033;-68
2021/01/24 10:58:14;;;;;;;1.98;1.30;;;6.50;99.90;;;;;;8298336;28;20036;-69
2021/01/24 11:02:14;;;;;;;1.67;1.15;;;5.70;99.90;;;;;;8314790;28;20564;-68
2021/01/24 11:06:15;;;;;;;3.65;1.30;;;4.80;99.90;;;;;;8323553;28;20026;-68
2021/01/24 11:10:15;;;;;;;0.85;0.77;;;5.30;99.90;;;;;;8313248;28;20049;-69
2021/01/24 11:14:16;;;;;;;2.08;0.95;;;6.50;99.90;;;;;;8291790;28;20100;-68
2021/01/24 11:18:17;;;;;;;2.10;1.10;;;6.30;99.90;;;;;;8291998;28;20029;-68
2021/01/24 11:22:21;;;;;;;2.13;1.08;;;6.60;99.70;;;;;;8294113;28;20108;-69
2021/01/24 11:26:22;;;;;;;2.70;1.27;;;7.00;97.70;;;;;;8310582;28;20392;-70
2021/01/24 11:30:23;;;;;;;1.60;1.25;;;7.10;97.70;;;;;;8318622;28;20022;-68
2021/01/24 11:34:24;;;;;;;3.05;1.17;;;7.80;94.30;;;;;;8317969;28;20403;-68
2021/01/24 11:38:24;;;;;;;0.85;0.68;;;7.30;94.10;;;;;;8319058;28;20503;-68
2021/01/24 11:42:25;;;;;;;1.27;1.00;;;7.50;93.90;;;;;;8312019;28;20138;-68
2021/01/24 11:46:27;;;;;;;1.35;0.82;;;7.40;93.90;;;;;;8310276;28;20701;-68
2021/01/24 11:50:27;;;;;;;3.13;1.58;;;6.90;94.00;;;;;;8306909;28;20037;-68
2021/01/24 11:54:28;;;;;;;1.38;0.90;;;7.20;96.90;;;;;;8309819;28;20485;-68
2021/01/24 11:58:29;;;;;;;1.77;1.08;;;6.40;94.20;;;;;;8308173;28;20116;-67
2021/01/24 12:02:29;;;;;;;1.27;0.80;;;6.60;95.10;;;;;;8309464;28;20045;-68
2021/01/24 12:06:32;;;;;;;2.13;1.13;;;6.30;93.70;;;;;;8314807;28;20136;-67
2021/01/24 12:10:33;;;;;;;1.23;0.60;;;;;;;;;;8302870;28;20026;-67
2021/01/24 12:14:35;;;;;;;2.65;1.00;;;8.80;89.30;;;;;;8311086;28;20511;-68
2021/01/24 12:18:35;;;;;;;3.90;1.55;;;9.10;90.00;;;;;;8310118;28;20172;-67
2021/01/24 12:22:36;;;;;;;2.40;1.08;;;10.20;81.80;;;;;;8308024;28;20037;-68
2021/01/24 12:26:36;;;;;;;2.72;0.65;;;9.80;79.70;;;;;;8316892;28;20088;-69
2021/01/24 12:30:37;;;;;;;1.05;0.80;;;9.20;81.00;;;;;;8307236;28;20238;-69
2021/01/24 12:34:38;;;;;;;1.40;0.95;;;8.40;82.90;;;;;;8314481;28;20034;-68
2021/01/24 12:38:38;;;;;;;0.88;0.60;;;7.90;83.90;;;;;;8316275;28;20064;-69
2021/01/24 12:42:39;;;;;;;1.98;1.10;;;7.50;87.50;;;;;;8313456;28;20026;-70
2021/01/24 12:46:39;;;;;;;1.90;1.45;;;6.00;90.60;;;;;;8313810;28;20084;-67
2021/01/24 12:50:40;;;;;;;2.08;1.33;;;5.10;93.80;;;;;;8315273;28;20029;-69
2021/01/24 12:54:41;;;;;;;2.80;1.00;;;5.60;93.10;;;;;;8305791;28;20390;-68
2021/01/24 12:58:42;;;;;;;2.33;1.23;;;7.30;90.80;;;;;;8309835;28;20034;-68
2021/01/24 13:02:44;;;;;;;1.77;0.80;;;7.90;86.40;;;;;;8328707;28;20044;-71
2021/01/24 13:06:44;;;;;;;1.85;0.93;;;8.80;82.30;;;;;;8312760;28;20040;-69
2021/01/24 13:10:45;;;;;;;1.67;1.10;;;8.40;82.10;;;;;;8304650;28;20028;-66
2021/01/24 13:14:45;;;;;;;1.17;0.80;;;8.30;83.40;;;;;;8321545;28;20039;-66
2021/01/24 13:18:46;;;;;;;1.92;0.95;;;7.80;85.00;;;;;;8315079;28;20730;-69
2021/01/24 13:22:47;;;;;;;2.17;0.93;;;6.80;89.10;;;;;;8320411;28;20037;-68
2021/01/24 13:26:47;;;;;;;2.20;1.05;;;6.60;90.10;;;;;;8321193;28;20025;-70
2021/01/24 13:30:48;;;;;;;2.88;1.00;;;5.40;91.60;;;;;;8335508;28;20119;-71
2021/01/24 13:34:48;;;;;;;1.58;0.82;;;5.40;93.30;;;;;;8319123;28;20059;-70
2021/01/24 13:38:49;;;;;;;2.80;1.40;;;5.30;92.00;;;;;;8315219;28;20020;-71
2021/01/24 13:42:49;;;;;;;2.35;1.02;;;5.80;92.00;;;;;;8314716;28;20037;-69
2021/01/24 13:46:50;;;;;;;1.23;1.05;;;6.80;90.00;;;;;;8310510;28;20391;-69
2021/01/24 13:50:51;;;;;;;2.47;1.30;;;6.00;92.20;;;;;;8317186;28;20053;-68
2021/01/24 13:54:51;;;;;;;2.55;1.30;;;6.00;91.80;;;;;;8317595;28;20373;-69
2021/01/24 13:58:52;;;;;;;0.77;0.68;;;5.70;92.90;;;;;;8314804;28;20025;-69
2021/01/24 14:02:52;;;;;;;1.40;0.90;;;6.10;91.80;;;;;;8315290;28;20095;-69
2021/01/24 14:06:53;;;;;;;2.03;0.85;;;6.00;90.40;;;;;;8313955;28;20056;-69
2021/01/24 14:10:54;;;;;;;2.97;1.13;;;5.20;91.90;;;;;;8316316;28;20435;-69
2021/01/24 14:14:56;;;;;;;2.38;1.00;;;5.00;93.50;;;;;;8313924;28;20025;-68
2021/01/24 14:18:57;;;;;;;10.02;3.75;;;4.80;93.20;;;;;;8325153;28;20033;-70
2021/01/24 14:22:57;;;;;;;3.05;1.58;;;4.40;94.60;;;;;;8308879;28;20088;-69
2021/01/24 14:26:58;;;;;;;9.85;4.28;;;4.00;94.90;;;;;;8310483;28;20032;-69
2021/01/24 14:30:58;;;;;;;3.40;1.20;;;3.70;95.50;;;;;;8314257;28;20511;-68
2021/01/24 14:34:59;;;;;;;4.82;2.95;;;3.10;97.00;;;;;;8307405;28;20014;-67
2021/01/24 14:38:59;;;;;;;2.33;1.30;;;3.00;97.40;;;;;;8300632;28;20625;-67
2021/01/24 14:43:00;;;;;;;3.13;1.20;;;2.80;97.80;;;;;;8306351;28;20489;-69
2021/01/24 14:47:01;;;;;;;3.72;1.10;;;2.90;98.50;;;;;;8314886;28;20143;-68
2021/01/24 14:51:01;;;;;;;1.50;1.30;;;2.70;98.40;;;;;;8309045;28;20029;-69
2021/01/24 14:55:02;;;;;;;4.65;1.35;;;2.90;98.50;;;;;;8311165;28;20034;-68
2021/01/24 14:59:04;;;;;;;1.42;0.60;;;2.60;98.80;;;;;;8312402;28;20504;-68
2021/01/24 15:03:06;;;;;;;0.80;0.77;;;2.50;99.20;;;;;;8311308;28;20033;-69
2021/01/24 15:07:06;;;;;;;3.53;1.63;;;2.40;99.60;;;;;;8312173;28;21413;-68
2021/01/24 15:11:07;;;;;;;3.65;1.70;;;2.30;99.90;;;;;;8302694;28;20045;-68
2021/01/24 15:15:09;;;;;;;2.03;0.93;;;2.50;99.90;;;;;;8303330;28;20029;-68
2021/01/24 15:19:09;;;;;;;2.08;1.33;;;2.30;99.90;;;;;;8302113;28;20611;-68
2021/01/24 15:23:10;;;;;;;6.70;1.60;;;2.20;99.90;;;;;;8316145;28;20086;-69
2021/01/24 15:27:10;;;;;;;3.03;2.17;;;2.10;99.90;;;;;;8310533;28;20029;-68
2021/01/24 15:31:11;;;;;;;1.55;1.40;;;2.10;99.90;;;;;;8312146;28;20111;-68
2021/01/24 15:35:13;;;;;;;1.90;1.45;;;1.90;99.90;;;;;;8312125;28;20488;-69
2021/01/24 15:39:13;;;;;;;1.88;0.93;;;1.90;99.90;;;;;;8310776;28;20040;-68
2021/01/24 15:43:14;;;;;;;2.08;0.85;;;1.80;99.90;;;;;;8313613;28;20038;-69
2021/01/24 15:47:15;;;;;;;1.85;1.20;;;1.70;99.90;;;;;;8316653;28;20421;-68
2021/01/24 15:51:16;;;;;;;5.90;2.60;;;1.60;99.90;;;;;;8311507;28;20029;-68
2021/01/24 15:55:17;;;;;;;3.92;2.03;;;1.50;99.90;;;;;;8309812;28;20140;-68
2021/01/24 15:59:17;;;;;;;8.18;2.63;;;1.50;99.90;;;;;;8309801;28;20029;-68
2021/01/24 16:03:18;;;;;;;5.70;3.38;;;1.30;99.90;;;;;;8313551;28;20136;-68
2021/01/24 16:07:18;;;;;;;11.10;4.20;;;1.10;99.90;;;;;;8311270;28;20021;-69
2021/01/24 16:11:19;;;;;;;18.55;7.63;;;1.00;99.90;;;;;;8300784;28;20026;-68
2021/01/24 16:15:20;;;;;;;6.95;1.73;;;0.70;99.90;;;;;;8302084;28;20022;-67
2021/01/24 16:19:22;;;;;;;16.70;6.22;;;0.60;99.90;;;;;;8301868;28;20056;-70
2021/01/24 16:23:23;;;;;;;10.98;4.85;;;0.50;99.90;;;;;;8303453;28;20545;-69
2021/01/24 16:27:24;;;;;;;18.08;6.13;;;0.40;99.90;;;;;;8310499;28;20034;-70
2021/01/24 16:31:25;;;;;;;16.88;6.85;;;0.40;99.90;;;;;;8294094;28;20029;-70
2021/01/24 16:35:25;;;;;;;7.10;2.88;;;0.40;99.90;;;;;;8320734;28;20029;-70
2021/01/24 16:39:26;;;;;;;11.93;5.57;;;0.40;99.90;;;;;;8296718;28;20026;-69
2021/01/24 16:43:27;;;;;;;5.93;2.25;;;0.40;99.90;;;;;;8300850;28;20046;-74
2021/01/24 16:47:28;;;;;;;18.23;7.63;;;0.40;99.90;;;;;;8304742;28;20172;-70
2021/01/24 16:51:29;;;;;;;6.60;2.97;;;0.20;99.90;;;;;;8307874;28;20554;-70
2021/01/24 16:55:30;;;;;;;12.30;3.92;;;0.20;99.90;;;;;;8309794;28;20025;-71
2021/01/24 16:59:30;;;;;;;16.88;4.82;;;0.20;99.90;;;;;;8317581;28;20854;-71
2021/01/24 17:03:31;;;;;;;13.18;4.45;;;0.20;99.90;;;;;;8318676;28;20033;-71
2021/01/24 17:07:32;;;;;;;12.98;4.10;;;0.20;99.90;;;;;;8319913;28;20655;-71
2021/01/24 17:11:32;;;;;;;6.78;2.72;;;0.20;99.90;;;;;;8315874;28;20025;-71
2021/01/24 17:15:33;;;;;;;5.57;1.75;;;0.30;99.90;;;;;;8316352;28;20025;-71
2021/01/24 17:19:34;;;;;;;3.67;1.23;;;0.30;99.90;;;;;;8316424;28;20048;-71
2021/01/24 17:23:35;;;;;;;5.07;1.45;;;0.20;99.90;;;;;;8313508;28;20045;-71
2021/01/24 17:27:35;;;;;;;3.13;1.50;;;0.20;99.90;;;;;;8312402;28;21050;-72
2021/01/24 17:31:36;;;;;;;5.03;2.10;;;0.00;99.90;;;;;;8299106;28;20033;-71
2021/01/24 17:35:37;;;;;;;5.88;2.25;;;-0.10;99.90;;;;;;8305596;28;20030;-71
2021/01/24 17:39:40;;;;;;;7.45;2.13;;;-0.20;99.90;;;;;;8311391;28;20053;-71
2021/01/24 17:43:40;;;;;;;4.20;1.65;;;-0.60;99.90;;;;;;8326760;28;20038;-71
2021/01/24 17:47:41;;;;;;;4.53;1.45;;;-0.70;99.90;;;;;;8305288;28;20254;-70
2021/01/24 17:51:41;;;;;;;3.05;1.30;;;-1.00;99.90;;;;;;8309732;28;20057;-69
2021/01/24 17:55:42;;;;;;;4.95;1.60;;;-1.00;99.90;;;;;;8300246;28;20413;-69
2021/01/24 17:59:43;;;;;;;4.22;1.70;;;-1.20;99.90;;;;;;8311324;28;20048;-70
2021/01/24 18:03:45;;;;;;;2.42;1.40;;;-1.10;99.90;;;;;;8313247;28;20018;-69
2021/01/24 18:07:45;;;;;;;3.60;1.52;;;-1.30;99.90;;;;;;8292779;28;20032;-69
2021/01/24 18:11:46;;;;;;;5.75;1.95;;;-1.70;99.90;;;;;;8309848;28;20021;-69
2021/01/24 18:15:47;;;;;;;2.95;1.80;;;-1.90;99.90;;;;;;8312987;28;20025;-68
2021/01/24 18:19:48;;;;;;;3.45;1.70;;;-2.00;99.90;;;;;;8309603;28;20436;-69
2021/01/24 18:23:48;;;;;;;3.22;1.63;;;-2.20;99.90;;;;;;8311424;28;20672;-69
2021/01/24 18:27:50;;;;;;;3.53;2.00;;;-2.40;99.90;;;;;;8306785;28;20557;-69
2021/01/24 18:31:51;;;;;;;3.70;1.95;;;-2.70;99.90;;;;;;8310762;28;20104;-69
2021/01/24 18:35:51;;;;;;;4.10;2.42;;;-2.40;99.90;;;;;;8306241;28;20537;-69
2021/01/24 18:39:52;;;;;;;5.90;2.55;;;-2.60;99.90;;;;;;8302942;28;20807;-69
2021/01/24 18:43:53;;;;;;;15.57;6.43;;;-2.60;99.90;;;;;;8304286;28;20496;-71
2021/01/24 18:47:54;;;;;;;5.15;2.33;;;-2.70;99.90;;;;;;8306576;28;20412;-73
2021/01/24 18:51:54;;;;;;;4.20;1.48;;;-2.80;99.90;;;;;;8309880;28;20033;-72
2021/01/24 18:55:55;;;;;;;40.95;12.38;;;-3.20;99.90;;;;;;8313266;28;20485;-72
2021/01/24 18:59:56;;;;;;;9.57;3.20;;;-3.50;99.90;;;;;;8312977;28;20029;-73
2021/01/24 19:03:58;;;;;;;7.55;3.28;;;-3.50;99.90;;;;;;8309723;28;20032;-73
2021/01/24 19:08:00;;;;;;;5.25;2.25;;;-3.40;99.90;;;;;;8315991;28;20449;-73
2021/01/24 19:12:01;;;;;;;5.78;2.60;;;-3.40;99.90;;;;;;8313856;28;20018;-72
2021/01/24 19:16:03;;;;;;;38.47;12.80;;;-3.40;99.90;;;;;;8313600;28;20444;-72
2021/01/24 19:20:04;;;;;;;12.73;4.72;;;-3.40;99.90;;;;;;8309062;28;20058;-73
2021/01/24 19:24:04;;;;;;;3.85;2.70;;;-3.50;99.90;;;;;;8312681;28;20053;-72
2021/01/24 19:28:05;;;;;;;9.82;5.05;;;-3.50;99.90;;;;;;8312447;28;20075;-75
2021/01/24 19:32:06;;;;;;;7.60;3.78;;;-3.70;99.90;;;;;;8317120;28;20033;-72
2021/01/24 19:36:07;;;;;;;9.38;3.28;;;-4.00;99.90;;;;;;8316995;28;20079;-73
2021/01/24 19:40:09;;;;;;;14.43;6.63;;;-4.00;99.90;;;;;;8307854;28;20037;-73
2021/01/24 19:44:09;;;;;;;17.98;6.82;;;-3.60;99.90;;;;;;8307475;28;20044;-73
2021/01/24 19:48:10;;;;;;;18.65;7.90;;;-3.60;99.90;;;;;;8306250;28;20034;-73
2021/01/24 19:52:11;;;;;;;30.88;11.70;;;-3.60;99.90;;;;;;8299616;28;20119;-74
2021/01/24 19:56:11;;;;;;;14.25;7.05;;;-3.90;99.90;;;;;;8297835;28;20465;-73
2021/01/24 20:00:13;;;;;;;10.93;6.22;;;-3.60;99.90;;;;;;8300480;28;20068;-73
2021/01/24 20:04:13;;;;;;;10.27;4.60;;;-3.80;99.90;;;;;;8319473;28;20263;-73
2021/01/24 20:08:14;;;;;;;10.80;4.85;;;-4.00;99.90;;;;;;8317393;28;20022;-73
2021/01/24 20:12:17;;;;;;;8.80;4.20;;;-4.10;99.90;;;;;;8309346;28;20022;-73
2021/01/24 20:16:18;;;;;;;7.60;3.92;;;-4.00;99.90;;;;;;8301800;28;20026;-75
2021/01/24 20:20:19;;;;;;;10.93;5.25;;;-3.90;99.90;;;;;;8305832;28;20076;-73
2021/01/24 20:24:19;;;;;;;11.30;5.03;;;-3.70;99.90;;;;;;8303894;28;20041;-73
2021/01/24 20:28:20;;;;;;;7.18;3.88;;;-3.80;99.90;;;;;;8303908;28;20034;-73
2021/01/24 20:32:21;;;;;;;9.13;4.38;;;-3.80;99.90;;;;;;8315751;28;20049;-73
2021/01/24 20:36:22;;;;;;;10.85;4.72;;;-3.70;99.90;;;;;;8318529;28;20045;-73
2021/01/24 20:40:23;;;;;;;8.85;3.80;;;-3.80;99.90;;;;;;8308901;28;20057;-73
2021/01/24 20:44:24;;;;;;;9.52;4.28;;;-3.70;99.90;;;;;;8315421;28;20022;-73
2021/01/24 20:48:24;;;;;;;6.68;3.05;;;-3.90;99.90;;;;;;8310758;28;21467;-73
2021/01/24 20:52:25;;;;;;;6.35;3.53;;;-4.00;99.90;;;;;;8319428;28;20037;-73
2021/01/24 20:56:26;;;;;;;10.02;5.25;;;-3.80;99.90;;;;;;8311037;28;20500;-73
2021/01/24 21:00:28;;;;;;;5.53;3.38;;;-4.10;99.90;;;;;;8312036;28;20148;-73
2021/01/24 21:04:28;;;;;;;7.32;3.13;;;-4.40;99.90;;;;;;8313877;28;20034;-73
2021/01/24 21:08:29;;;;;;;5.15;3.40;;;-4.50;99.90;;;;;;8312251;28;20025;-73